createdAt,value
2023-01-30T01:17:26.185Z,4.79
2023-01-30T01:19:58.568Z,4.80
2023-01-30T01:22:30.742Z,4.82
2023-01-30T01:25:32.485Z,4.83
2023-01-30T01:28:04.945Z,4.96
2023-01-30T01:30:40.060Z,5.06
2023-01-30T01:33:12.166Z,5.10
2023-01-30T01:35:44.239Z,5.21
2023-01-30T01:38:31.860Z,5.22
2023-01-30T01:41:06.557Z,5.34
2023-01-30T01:44:07.187Z,5.24
2023-01-30T01:46:56.272Z,5.17
2023-01-30T01:49:36.004Z,5.20
2023-01-30T01:52:13.892Z,5.33
2023-01-30T01:55:38.322Z,5.39
2023-01-30T01:58:39.782Z,5.61
2023-01-30T02:01:12.256Z,5.66
2023-01-30T02:03:51.155Z,5.55
2023-01-30T02:06:23.954Z,5.60
2023-01-30T02:09:03.078Z,5.45
2023-01-30T02:11:47.730Z,5.52
2023-01-30T02:14:22.046Z,5.54
2023-01-30T02:17:59.714Z,5.46
2023-01-30T02:20:42.259Z,5.62
2023-01-30T02:23:39.309Z,5.63
2023-01-30T02:26:36.770Z,5.58
2023-01-30T02:29:45.318Z,5.43
2023-01-30T02:32:50.186Z,5.39
2023-01-30T02:36:02.981Z,5.55
2023-01-30T02:39:02.164Z,5.59
2023-01-30T02:42:25.666Z,5.58
2023-01-30T02:45:49.293Z,5.58
2023-01-30T02:48:42.908Z,5.64
2023-01-30T02:51:22.429Z,5.60
2023-01-30T02:54:35.169Z,5.55
2023-01-30T02:57:23.156Z,5.61
2023-01-30T03:00:02.367Z,5.54
2023-01-30T03:03:07.138Z,5.52
2023-01-30T03:06:03.483Z,5.50
2023-01-30T03:08:56.583Z,5.47
2023-01-30T03:11:43.061Z,5.52
2023-01-30T03:14:31.424Z,5.63
2023-01-30T03:17:29.844Z,5.62
2023-01-30T03:20:11.960Z,5.70
2023-01-30T03:22:44.287Z,5.80
2023-01-30T03:25:23.711Z,5.70
2023-01-30T03:27:56.970Z,5.60
2023-01-30T03:30:29.119Z,5.67
2023-01-30T03:33:01.952Z,5.69
2023-01-30T03:35:36.057Z,5.70
2023-01-30T03:38:08.254Z,5.73
2023-01-30T03:40:40.484Z,5.77
2023-01-30T03:43:12.601Z,5.79
2023-01-30T03:45:45.003Z,5.81
2023-01-30T03:48:17.183Z,5.77
2023-01-30T03:50:49.371Z,5.90
2023-01-30T03:53:30.586Z,5.90
2023-01-30T03:56:02.782Z,6.02
2023-01-30T03:58:35.152Z,6.09
2023-01-30T04:01:08.744Z,6.00
2023-01-30T04:03:40.749Z,6.12
2023-01-30T04:06:12.900Z,6.13
2023-01-30T04:08:45.131Z,6.20
2023-01-30T04:11:17.179Z,6.28
2023-01-30T04:13:49.497Z,6.24
2023-01-30T04:16:27.191Z,6.26
2023-01-30T04:18:59.584Z,6.20
2023-01-30T04:23:01.643Z,6.29
2023-01-30T04:25:45.394Z,6.42
2023-01-30T04:28:18.091Z,6.41
2023-01-30T04:30:50.378Z,6.47
2023-01-30T04:33:22.725Z,6.47
2023-01-30T04:36:32.258Z,6.45
2023-01-30T04:39:05.135Z,6.48
2023-01-30T04:41:37.260Z,6.50
2023-01-30T04:44:09.662Z,6.47
2023-01-30T04:46:44.101Z,6.48
2023-01-30T04:49:16.438Z,6.41
2023-01-30T04:51:51.461Z,6.29
2023-01-30T04:54:23.630Z,6.30
2023-01-30T04:56:57.378Z,6.33
2023-01-30T04:59:29.461Z,6.26
2023-01-30T05:02:04.296Z,6.23
2023-01-30T05:04:36.603Z,6.22
2023-01-30T05:07:09.177Z,6.22
2023-01-30T05:09:41.618Z,6.25
2023-01-30T05:12:13.987Z,6.26
2023-01-30T05:14:46.971Z,6.22
2023-01-30T05:17:19.004Z,6.25
2023-01-30T05:19:51.388Z,6.17
2023-01-30T05:22:23.765Z,6.16
2023-01-30T05:24:55.948Z,6.18
2023-01-30T05:27:31.362Z,6.26
2023-01-30T05:30:04.574Z,6.34
2023-01-30T05:32:38.871Z,6.39
2023-01-30T05:35:11.246Z,6.38
2023-01-30T05:37:43.370Z,6.43
2023-01-30T05:40:15.770Z,6.41
2023-01-30T05:42:47.932Z,6.45
2023-01-30T05:45:20.518Z,6.43
2023-01-30T05:47:54.865Z,6.47
2023-01-30T05:50:28.943Z,6.46
2023-01-30T05:53:01.058Z,6.41
2023-01-30T05:55:33.381Z,6.43
2023-01-30T05:58:05.552Z,6.36
2023-01-30T06:00:37.927Z,6.30
2023-01-30T06:03:12.960Z,6.25
2023-01-30T06:05:47.954Z,6.19
2023-01-30T06:08:20.077Z,6.11
2023-01-30T06:10:55.105Z,6.09
2023-01-30T06:13:27.501Z,6.07
2023-01-30T06:16:00.173Z,6.10
2023-01-30T06:18:32.795Z,6.11
2023-01-30T06:21:06.028Z,6.17
2023-01-30T06:23:39.052Z,6.12
2023-01-30T06:26:11.313Z,6.02
2023-01-30T06:28:45.474Z,6.03
2023-01-30T06:31:18.565Z,6.03
2023-01-30T06:33:50.600Z,6.00
2023-01-30T06:36:22.750Z,5.93
2023-01-30T06:38:54.976Z,5.86
2023-01-30T06:41:27.028Z,5.87
2023-01-30T06:43:59.127Z,5.90
2023-01-30T06:46:31.427Z,5.86
2023-01-30T06:49:03.515Z,5.83
2023-01-30T06:51:35.536Z,5.93
2023-01-30T06:54:07.630Z,5.90
2023-01-30T06:56:39.762Z,5.79
2023-01-30T06:59:12.038Z,5.85
2023-01-30T07:01:44.566Z,5.86
2023-01-30T07:04:19.369Z,5.84
2023-01-30T07:06:51.636Z,5.82
2023-01-30T07:09:23.866Z,5.86
2023-01-30T07:12:00.724Z,5.80
2023-01-30T07:14:33.178Z,5.81
2023-01-30T07:17:33.203Z,5.76
2023-01-30T07:20:05.967Z,5.80
2023-01-30T07:22:43.065Z,5.86
2023-01-30T07:25:15.463Z,5.88
2023-01-30T07:27:54.955Z,5.95
2023-01-30T07:30:31.145Z,5.96
2023-01-30T07:42:40.853Z,6.03
2023-01-30T07:46:12.069Z,6.05
2023-01-30T08:09:13.067Z,6.33
2023-01-30T08:11:46.905Z,6.38
2023-01-30T08:14:35.417Z,6.30
2023-01-30T08:17:07.873Z,6.30
2023-01-30T08:19:40.321Z,6.38
2023-01-30T08:22:12.616Z,6.43
2023-01-30T08:24:45.055Z,6.50
2023-01-30T08:27:17.626Z,6.48
2023-01-30T08:29:49.708Z,6.43
2023-01-30T08:32:21.954Z,6.42
2023-01-30T08:34:54.266Z,6.42
2023-01-30T08:37:26.340Z,6.55
2023-01-30T08:39:58.447Z,6.64
2023-01-30T08:42:30.805Z,6.65
2023-01-30T08:45:03.230Z,6.66
2023-01-30T08:47:35.730Z,6.74
2023-01-30T08:50:08.818Z,6.59
2023-01-30T08:52:40.890Z,6.72
2023-01-30T08:55:12.982Z,6.70
2023-01-30T08:57:45.424Z,6.81
2023-01-30T09:00:18.559Z,6.89
2023-01-30T09:02:57.642Z,6.84
2023-01-30T09:05:30.323Z,6.65
2023-01-30T09:08:03.084Z,6.58
2023-01-30T09:10:35.511Z,6.52
2023-01-30T09:13:10.257Z,6.47
2023-01-30T09:15:44.093Z,6.56
2023-01-30T09:18:17.276Z,6.65
2023-01-30T09:20:49.381Z,6.70
2023-01-30T09:23:22.628Z,6.75
2023-01-30T09:25:55.007Z,6.81
2023-01-30T09:28:27.606Z,7.08
2023-01-30T09:31:01.577Z,7.20
2023-01-30T09:33:33.804Z,7.20
2023-01-30T09:36:06.586Z,7.31
2023-01-30T09:38:38.537Z,7.27
2023-01-30T09:41:48.137Z,7.16
2023-01-30T09:45:19.363Z,7.23
2023-01-30T09:48:12.308Z,7.05
2023-01-30T09:51:57.988Z,6.78
2023-01-30T09:54:36.883Z,6.79
2023-01-30T09:57:21.679Z,6.71
2023-01-30T10:00:12.768Z,6.66
2023-01-30T10:03:11.229Z,6.89
2023-01-30T10:06:07.370Z,7.02
2023-01-30T10:08:52.298Z,7.15
2023-01-30T10:11:50.040Z,7.29
2023-01-30T10:14:40.184Z,7.49
2023-01-30T10:17:32.969Z,7.47
2023-01-30T10:20:40.846Z,7.35
2023-01-30T10:23:39.487Z,7.44
2023-01-30T10:26:15.423Z,7.78
2023-01-30T10:29:25.621Z,7.90
2023-01-30T10:32:12.880Z,7.82
2023-01-30T10:34:56.899Z,7.88
2023-01-30T10:37:42.405Z,7.85
2023-01-30T10:40:41.964Z,7.47
2023-01-30T10:43:30.819Z,7.37
2023-01-30T10:46:31.748Z,7.23
2023-01-30T10:49:21.520Z,7.21
2023-01-30T10:52:04.177Z,7.37
2023-01-30T10:55:37.963Z,7.79
2023-01-30T10:58:28.998Z,7.62
2023-01-30T11:01:24.184Z,7.06
2023-01-30T11:04:27.102Z,6.76
2023-01-30T11:07:02.254Z,6.47
2023-01-30T11:09:46.595Z,6.36
2023-01-30T11:12:18.679Z,6.32
2023-01-30T11:14:54.780Z,6.28
2023-01-30T11:17:37.179Z,6.32
2023-01-30T11:20:21.015Z,6.43
2023-01-30T11:23:11.734Z,6.46
2023-01-30T11:26:10.517Z,6.54
2023-01-30T11:28:45.604Z,6.65
2023-01-30T11:31:40.348Z,6.95
2023-01-30T11:34:17.760Z,7.24
2023-01-30T11:36:50.881Z,7.34
2023-01-30T11:39:28.916Z,7.59
2023-01-30T11:42:04.823Z,7.72
2023-01-30T11:44:38.596Z,7.67
2023-01-30T11:47:25.428Z,7.92
2023-01-30T11:50:12.385Z,8.39
2023-01-30T11:52:54.352Z,8.62
2023-01-30T11:55:26.819Z,8.63
2023-01-30T11:58:03.053Z,8.59
2023-01-30T12:00:48.198Z,8.67
2023-01-30T12:03:25.953Z,8.74
2023-01-30T12:05:59.492Z,8.82
2023-01-30T12:08:42.374Z,8.72
2023-01-30T12:11:47.138Z,8.61
2023-01-30T12:14:45.890Z,8.86
2023-01-30T12:17:29.793Z,8.67
2023-01-30T12:20:19.973Z,8.55
2023-01-30T12:23:23.458Z,8.41
2023-01-30T12:26:41.430Z,8.23
2023-01-30T12:30:10.888Z,8.22
2023-01-30T12:32:42.926Z,8.04
2023-01-30T12:35:18.871Z,8.22
2023-01-30T12:38:11.816Z,8.24
2023-01-30T12:41:36.174Z,8.37
2023-01-30T12:44:38.435Z,8.54
2023-01-30T12:48:14.307Z,8.56
2023-01-30T12:51:23.173Z,8.52
2023-01-30T12:54:19.662Z,8.40
2023-01-30T12:57:43.729Z,8.51
2023-01-30T13:00:27.723Z,8.40
2023-01-30T13:03:19.402Z,8.19
2023-01-30T13:06:12.472Z,7.99
2023-01-30T13:09:32.006Z,8.10
2023-01-30T13:12:04.036Z,8.12
2023-01-30T13:15:14.221Z,8.22
2023-01-30T13:18:06.168Z,8.14
2023-01-30T13:20:49.866Z,8.16
2023-01-30T13:23:39.797Z,8.17
2023-01-30T13:27:14.607Z,8.18
2023-01-30T13:29:49.126Z,8.16
2023-01-30T13:32:33.669Z,8.07
2023-01-30T13:35:16.975Z,7.99
2023-01-30T13:37:51.221Z,7.97
2023-01-30T13:40:28.986Z,7.93
2023-01-30T13:46:20.537Z,7.89
2023-01-30T13:49:26.053Z,7.73
2023-01-30T13:52:09.881Z,7.80
2023-01-30T13:55:06.279Z,7.87
2023-01-30T13:57:56.729Z,7.84
2023-01-30T14:00:49.264Z,7.81
2023-01-30T14:03:31.973Z,7.90
2023-01-30T14:06:14.513Z,8.01
2023-01-30T14:08:47.148Z,7.91
2023-01-30T14:11:32.984Z,7.85
2023-01-30T14:14:29.311Z,7.82
2023-01-30T14:17:19.677Z,7.79
2023-01-30T14:20:05.214Z,7.68
2023-01-30T14:23:03.767Z,7.58
2023-01-30T14:25:47.466Z,7.54
2023-01-30T14:28:19.387Z,7.57
2023-01-30T14:30:59.070Z,7.59
2023-01-30T14:33:36.280Z,7.54
2023-01-30T14:36:34.760Z,7.51
2023-01-30T14:39:55.760Z,7.58
2023-01-30T14:42:30.454Z,7.59
2023-01-30T14:45:17.237Z,7.62
2023-01-30T14:48:27.786Z,7.67
2023-01-30T14:51:24.696Z,7.69
2023-01-30T14:54:15.501Z,7.63
2023-01-30T14:57:46.368Z,7.69
2023-01-30T15:00:22.454Z,7.68
2023-01-30T15:03:07.872Z,7.59
2023-01-30T15:05:44.793Z,7.54
2023-01-30T15:08:24.249Z,7.52
2023-01-30T15:11:16.966Z,7.53
2023-01-30T15:14:00.901Z,7.54
2023-01-30T15:16:57.758Z,7.44
2023-01-30T15:20:13.024Z,6.95
2023-01-30T15:23:15.931Z,6.70
2023-01-30T15:26:31.081Z,6.53
2023-01-30T15:29:28.726Z,6.50
2023-01-30T15:32:13.958Z,6.46
2023-01-30T15:35:19.030Z,6.42
2023-01-30T15:37:57.353Z,6.31
2023-01-30T15:40:30.247Z,6.36
2023-01-30T15:43:19.447Z,6.39
2023-01-30T15:46:00.639Z,6.40
2023-01-30T15:49:11.348Z,6.43
2023-01-30T15:51:43.407Z,6.43
2023-01-30T15:54:22.996Z,6.43
2023-01-30T15:56:58.398Z,6.51
2023-01-30T15:59:38.459Z,6.59
2023-01-30T16:02:21.392Z,6.63
2023-01-30T16:05:17.286Z,6.67
2023-01-30T16:07:52.232Z,6.71
2023-01-30T16:10:30.340Z,6.74
2023-01-30T16:13:04.465Z,6.73
2023-01-30T16:16:10.588Z,6.78
2023-01-30T16:18:57.298Z,6.77
2023-01-30T18:20:22.697Z,6.11
2023-01-30T18:22:54.763Z,6.07
2023-01-30T18:25:26.916Z,6.00
2023-01-30T18:27:58.952Z,5.99
2023-01-30T18:30:30.995Z,5.96
2023-01-30T18:33:04.867Z,5.96
2023-01-30T18:35:38.591Z,5.98
2023-01-30T18:38:10.615Z,5.94
2023-01-30T18:40:42.578Z,5.93
2023-01-30T18:43:19.225Z,5.89
2023-01-30T18:46:01.525Z,5.86
2023-01-30T18:48:34.162Z,5.88
2023-01-30T18:51:19.450Z,5.86
2023-01-30T18:53:53.727Z,5.91
2023-01-30T18:56:31.923Z,5.90
2023-01-30T18:59:06.179Z,5.87
2023-01-30T19:01:42.506Z,5.87
2023-01-30T19:04:14.632Z,5.84
2023-01-30T19:06:46.636Z,5.85
2023-01-30T19:09:19.146Z,5.90
2023-01-30T19:12:09.343Z,5.96
2023-01-30T19:14:41.435Z,6.12
2023-01-30T19:17:15.147Z,6.04
2023-01-30T19:19:47.256Z,5.89
2023-01-30T19:22:19.280Z,5.57
2023-01-30T19:24:51.299Z,5.46
2023-01-30T19:27:23.580Z,5.39
2023-01-30T19:29:56.158Z,5.32
2023-01-30T19:32:28.118Z,5.27
2023-01-30T19:35:00.111Z,5.28
2023-01-30T19:37:32.165Z,5.27
2023-01-30T19:40:09.047Z,5.34
2023-01-30T19:42:44.415Z,5.42
2023-01-30T19:45:16.788Z,5.45
2023-01-30T19:47:48.740Z,5.47
2023-01-30T19:50:21.065Z,5.44
2023-01-30T19:52:53.819Z,5.42
2023-01-30T19:55:26.160Z,5.49
2023-01-30T19:57:58.367Z,5.53
2023-01-30T20:00:30.612Z,5.58
2023-01-30T20:03:02.612Z,5.61
2023-01-30T20:05:34.693Z,5.67
2023-01-30T20:08:06.684Z,5.62
2023-01-30T20:10:38.667Z,5.44
2023-01-30T20:13:14.837Z,5.43
2023-01-30T20:15:46.876Z,5.46
2023-01-30T20:18:18.847Z,5.48
2023-01-30T20:20:50.935Z,5.51
2023-01-30T20:23:23.311Z,5.48
2023-01-30T20:25:55.320Z,5.37
2023-01-30T20:28:28.263Z,5.37
2023-01-30T20:31:01.621Z,5.31
2023-01-30T20:33:33.590Z,5.34
2023-01-30T20:36:09.251Z,5.34
2023-01-30T20:38:43.812Z,5.39
2023-01-30T20:41:17.887Z,5.45
2023-01-30T20:43:53.804Z,5.50
2023-01-30T20:46:31.804Z,5.53
2023-01-30T20:49:04.261Z,5.55
2023-01-30T20:51:38.696Z,5.59
2023-01-30T20:54:13.971Z,5.61
2023-01-30T20:56:52.295Z,5.55
2023-01-30T20:59:24.986Z,5.53
2023-01-30T21:01:57.188Z,5.51
2023-01-30T21:04:29.317Z,5.50
2023-01-30T21:07:01.728Z,5.49
2023-01-30T21:09:34.768Z,5.40
2023-01-30T21:12:07.205Z,5.49
2023-01-30T21:14:39.462Z,5.46
2023-01-30T21:17:11.492Z,5.54
2023-01-30T21:19:43.713Z,5.62
2023-01-30T21:22:15.809Z,5.65
2023-01-30T21:24:47.857Z,5.73
2023-01-30T21:27:21.264Z,5.81
2023-01-30T21:29:53.344Z,5.86
2023-01-30T21:32:25.318Z,5.88
2023-01-30T21:34:57.279Z,5.88
2023-01-30T21:37:47.601Z,5.87
2023-01-30T21:40:38.335Z,5.79
2023-01-30T21:43:16.345Z,5.64
2023-01-30T21:45:48.400Z,5.40
2023-01-30T21:48:20.573Z,5.25
2023-01-30T21:50:52.663Z,5.26
2023-01-30T21:53:24.770Z,5.28
2023-01-30T21:55:56.940Z,5.31
2023-01-30T21:58:32.424Z,5.33
2023-01-30T22:01:08.394Z,5.37
2023-01-30T22:03:40.531Z,5.37
2023-01-30T22:06:13.075Z,5.39
2023-01-30T22:08:45.332Z,5.41
2023-01-30T22:11:21.093Z,5.42
2023-01-30T22:13:53.601Z,5.43
2023-01-30T22:16:28.998Z,5.41
2023-01-30T22:19:05.608Z,5.36
2023-01-30T22:21:40.246Z,5.33
2023-01-30T22:24:12.438Z,5.22
2023-01-30T22:26:44.546Z,5.29
2023-01-30T22:29:18.477Z,5.31
2023-01-30T22:31:50.510Z,5.37
2023-01-30T22:34:22.517Z,5.38
2023-01-30T22:36:54.802Z,5.37
2023-01-30T22:39:26.800Z,5.34
2023-01-30T22:41:58.769Z,5.35
2023-01-30T22:44:30.760Z,5.43
2023-01-30T22:47:02.716Z,5.45
2023-01-30T22:49:34.687Z,5.51
2023-01-30T22:52:06.692Z,5.43
2023-01-30T22:54:38.658Z,5.43
2023-01-30T22:57:10.584Z,5.35
2023-01-30T22:59:42.584Z,5.21
2023-01-30T23:02:14.552Z,5.13
2023-01-30T23:04:49.247Z,5.04
2023-01-30T23:07:22.290Z,4.99
2023-01-30T23:09:54.327Z,4.96
2023-01-30T23:12:44.990Z,4.93
2023-01-30T23:15:17.379Z,4.94
2023-01-30T23:18:10.905Z,4.95
2023-01-30T23:20:42.873Z,4.98
2023-01-30T23:23:14.802Z,5.00
2023-01-30T23:25:46.881Z,5.03
2023-01-30T23:28:19.006Z,5.03
2023-01-30T23:30:50.964Z,5.05
2023-01-30T23:33:25.537Z,4.99
2023-01-30T23:36:02.885Z,4.93
2023-01-30T23:38:35.477Z,4.87
2023-01-30T23:41:18.762Z,4.84
2023-01-30T23:43:51.746Z,4.83
2023-01-30T23:46:30.041Z,4.80
2023-01-30T23:49:12.286Z,4.77
2023-01-30T23:51:45.320Z,4.76
2023-01-30T23:54:17.322Z,4.72
2023-01-30T23:56:49.477Z,4.74
2023-01-30T23:59:21.557Z,4.78
